Ernest, Pennsylvania
Current Conditions -  °F | °C
As of 11:35 PM on Friday 24 Oct 2014 (Local Time) from KIDI Reporting Station
Overcast Overcast  
Wind Chill: 41°   Ceiling: 4900
Heat Index: 41°   Visibility: 10mi
Dew Point: 37°   Wind: 0mph
Humidity: 87%   Direction: NA
Pressure: 30.05"   Gusts: NA
Location:  40.68°N, 79.16°W
Report Text: KIDI 250335Z AUTO 00000KT 10SM OVC049 05/03 A3005 RMK A01
Loading
Personal Weather Stations






























Interactive Weather Map New forecast layout! Learn more

10-Day Weather Forecast

Advertisements
Track Severe Weather on mobile